createdAt,value
2023-04-27T00:00:22.153Z,62.24
2023-04-27T00:02:50.009Z,62.36
2023-04-27T00:05:18.280Z,62.31
2023-04-27T00:07:46.307Z,63.09
2023-04-27T00:10:13.936Z,62.88
2023-04-27T00:12:43.024Z,62.89
2023-04-27T00:15:10.695Z,62.99
2023-04-27T00:17:38.696Z,63.24
2023-04-27T00:20:08.945Z,63.58
2023-04-27T00:22:36.663Z,63.78
2023-04-27T00:25:04.651Z,63.83
2023-04-27T00:27:32.261Z,63.44
2023-04-27T00:30:01.094Z,64.05
2023-04-27T00:32:28.702Z,63.83
2023-04-27T00:34:56.365Z,64.45
2023-04-27T00:37:24.368Z,64.57
2023-04-27T00:39:51.947Z,64.45
2023-04-27T00:42:19.937Z,64.90
2023-04-27T00:44:47.561Z,64.38
2023-04-27T00:47:15.159Z,65.03
2023-04-27T00:49:43.119Z,65.13
2023-04-27T00:52:10.753Z,64.63
2023-04-27T00:54:38.635Z,64.76
2023-04-27T00:57:06.663Z,64.77
2023-04-27T00:59:34.252Z,64.72
2023-04-27T01:02:02.235Z,65.34
2023-04-27T01:04:30.032Z,64.46
2023-04-27T01:06:57.990Z,64.75
2023-04-27T01:09:26.008Z,65.33
2023-04-27T01:11:53.622Z,65.12
2023-04-27T01:14:22.452Z,65.23
2023-04-27T01:16:50.801Z,64.84
2023-04-27T01:19:18.532Z,64.88
2023-04-27T01:21:46.637Z,65.04
2023-04-27T01:24:14.253Z,65.53
2023-04-27T01:26:42.230Z,65.22
2023-04-27T01:29:09.840Z,65.74
2023-04-27T01:31:37.501Z,65.04
2023-04-27T01:34:05.107Z,65.81
2023-04-27T01:36:33.069Z,65.51
2023-04-27T01:39:01.027Z,66.09
2023-04-27T01:41:28.657Z,66.03
2023-04-27T01:43:56.271Z,65.61
2023-04-27T01:46:23.862Z,65.57
2023-04-27T01:48:51.543Z,65.63
2023-04-27T01:51:19.575Z,66.33
2023-04-27T01:53:47.150Z,65.76
2023-04-27T01:56:14.791Z,66.28
2023-04-27T01:58:42.716Z,66.34
2023-04-27T02:01:10.407Z,65.92
2023-04-27T02:03:38.529Z,66.83
2023-04-27T02:06:06.250Z,66.33
2023-04-27T02:08:33.844Z,66.59
2023-04-27T02:11:01.484Z,66.64
2023-04-27T02:13:29.034Z,66.56
2023-04-27T02:15:57.681Z,66.80
2023-04-27T02:18:25.579Z,67.19
2023-04-27T02:20:53.124Z,66.84
2023-04-27T02:23:20.678Z,67.32
2023-04-27T02:25:48.293Z,66.40
2023-04-27T02:28:16.193Z,66.52
2023-04-27T02:30:44.720Z,66.58
2023-04-27T02:33:12.642Z,67.33
2023-04-27T02:35:40.185Z,67.24
2023-04-27T02:38:07.740Z,66.90
2023-04-27T02:40:36.017Z,66.96
2023-04-27T02:43:04.056Z,67.28
2023-04-27T02:45:31.616Z,67.35
2023-04-27T02:47:59.348Z,67.59
2023-04-27T02:50:27.022Z,67.83
2023-04-27T02:52:55.736Z,67.04
2023-04-27T02:55:23.355Z,67.75
2023-04-27T02:57:51.553Z,67.03
2023-04-27T03:00:19.924Z,67.75
2023-04-27T03:02:48.005Z,67.45
2023-04-27T03:05:16.374Z,67.55
2023-04-27T03:07:43.940Z,67.83
2023-04-27T03:10:11.619Z,68.13
2023-04-27T03:12:39.185Z,67.67
2023-04-27T03:15:06.798Z,67.49
2023-04-27T03:17:34.750Z,67.20
2023-04-27T03:20:02.414Z,67.91
2023-04-27T03:22:30.288Z,67.21
2023-04-27T03:24:59.410Z,67.79
2023-04-27T03:27:26.976Z,67.50
2023-04-27T03:29:55.215Z,67.31
2023-04-27T03:32:22.802Z,67.83
2023-04-27T03:34:50.491Z,67.28
2023-04-27T03:37:18.036Z,67.56
2023-04-27T03:39:45.839Z,67.67
2023-04-27T03:42:13.857Z,67.87
2023-04-27T03:44:41.417Z,68.12
2023-04-27T03:47:10.591Z,68.26
2023-04-27T03:49:38.204Z,67.92
2023-04-27T03:52:05.988Z,67.92
2023-04-27T03:54:33.646Z,67.62
2023-04-27T03:57:02.669Z,67.80
2023-04-27T03:59:30.317Z,67.99
2023-04-27T04:02:00.938Z,68.00
2023-04-27T04:04:29.112Z,68.02
2023-04-27T04:06:57.227Z,67.47
2023-04-27T04:09:25.087Z,67.92
2023-04-27T04:11:52.713Z,68.21
2023-04-27T04:14:20.354Z,67.74
2023-04-27T04:16:47.966Z,68.22
2023-04-27T04:19:16.233Z,67.97
2023-04-27T04:21:44.039Z,68.35
2023-04-27T04:24:11.683Z,68.11
2023-04-27T04:26:39.835Z,68.26
2023-04-27T04:29:09.520Z,68.28
2023-04-27T04:31:39.058Z,67.41
2023-04-27T04:34:07.027Z,68.20
2023-04-27T04:36:36.258Z,68.04
2023-04-27T04:39:05.876Z,67.45
2023-04-27T04:41:33.592Z,67.89
2023-04-27T04:44:01.566Z,67.79
2023-04-27T04:46:29.259Z,67.47
2023-04-27T04:48:57.160Z,67.73
2023-04-27T04:51:24.755Z,67.92
2023-04-27T04:53:52.433Z,67.57
2023-04-27T04:56:20.369Z,66.94
2023-04-27T04:58:48.049Z,67.40
2023-04-27T05:01:15.942Z,67.47
2023-04-27T05:03:43.787Z,67.18
2023-04-27T05:06:11.536Z,67.56
2023-04-27T05:08:39.514Z,66.93
2023-04-27T05:11:07.137Z,66.91
2023-04-27T05:13:35.746Z,66.72
2023-04-27T05:16:03.788Z,66.15
2023-04-27T05:18:31.465Z,66.06
2023-04-27T05:20:59.284Z,66.17
2023-04-27T05:23:26.936Z,66.22
2023-04-27T05:25:54.568Z,65.64
2023-04-27T05:28:22.165Z,65.12
2023-04-27T05:30:49.855Z,65.52
2023-04-27T05:33:17.830Z,65.01
2023-04-27T05:35:45.491Z,65.06
2023-04-27T05:38:17.593Z,65.20
2023-04-27T05:40:45.274Z,64.24
2023-04-27T05:43:12.911Z,64.63
2023-04-27T05:45:41.109Z,64.38
2023-04-27T05:48:08.789Z,63.92
2023-04-27T05:50:36.412Z,63.69
2023-04-27T05:53:05.843Z,63.83
2023-04-27T05:55:33.499Z,63.33
2023-04-27T05:58:08.624Z,63.50
2023-04-27T06:00:37.358Z,63.42
2023-04-27T06:03:05.231Z,63.38
2023-04-27T06:05:34.457Z,62.63
2023-04-27T06:08:02.498Z,62.66
2023-04-27T06:10:30.399Z,62.23
2023-04-27T06:12:58.023Z,62.32
2023-04-27T06:15:25.775Z,61.56
2023-04-27T06:17:53.383Z,61.50
2023-04-27T06:20:21.410Z,61.52
2023-04-27T06:22:49.111Z,60.79
2023-04-27T06:25:17.330Z,60.53
2023-04-27T06:27:44.952Z,60.98
2023-04-27T06:30:12.602Z,61.00
2023-04-27T06:32:40.642Z,61.14
2023-04-27T06:35:08.325Z,60.60
2023-04-27T06:37:36.537Z,60.38
2023-04-27T06:40:05.155Z,60.48
2023-04-27T06:42:32.809Z,60.16
2023-04-27T06:45:00.472Z,59.84
2023-04-27T06:47:28.151Z,60.00
2023-04-27T06:49:55.822Z,59.86
2023-04-27T06:52:23.496Z,59.84
2023-04-27T06:54:51.221Z,59.41
2023-04-27T06:57:18.957Z,59.47
2023-04-27T06:59:46.860Z,59.54
2023-04-27T07:02:15.616Z,59.47
2023-04-27T07:04:43.594Z,59.28
2023-04-27T07:07:11.462Z,58.78
2023-04-27T07:09:39.736Z,59.23
2023-04-27T07:12:07.413Z,58.81
2023-04-27T07:14:35.248Z,58.54
2023-04-27T07:17:02.905Z,58.74
2023-04-27T07:19:30.657Z,58.14
2023-04-27T07:21:58.460Z,58.18
2023-04-27T07:24:26.155Z,58.17
2023-04-27T07:26:54.338Z,57.89
2023-04-27T07:29:27.156Z,57.47
2023-04-27T07:31:56.005Z,57.36
2023-04-27T07:34:24.444Z,56.72
2023-04-27T07:36:52.302Z,56.89
2023-04-27T07:39:20.970Z,56.38
2023-04-27T07:41:50.348Z,56.39
2023-04-27T07:44:18.524Z,56.19
2023-04-27T07:46:47.782Z,55.99
2023-04-27T07:49:15.983Z,55.71
2023-04-27T07:51:44.696Z,55.26
2023-04-27T07:54:12.540Z,55.43
2023-04-27T07:56:40.501Z,55.73
2023-04-27T07:59:08.838Z,55.63
2023-04-27T08:01:36.602Z,55.29
2023-04-27T08:04:05.104Z,54.74
2023-04-27T08:06:34.216Z,55.11
2023-04-27T08:09:04.492Z,54.53
2023-04-27T08:11:32.644Z,54.44
2023-04-27T08:14:00.368Z,54.51
2023-04-27T08:16:28.354Z,54.69
2023-04-27T08:18:56.879Z,54.68
2023-04-27T08:21:25.813Z,54.22
2023-04-27T08:23:54.376Z,54.13
2023-04-27T08:26:24.366Z,54.07
2023-04-27T08:28:54.476Z,53.41
2023-04-27T08:31:22.448Z,54.13
2023-04-27T08:33:50.553Z,53.85
2023-04-27T08:36:18.857Z,53.67
2023-04-27T08:38:47.140Z,53.08
2023-04-27T08:41:21.519Z,53.03
2023-04-27T08:43:51.174Z,53.07
2023-04-27T08:46:19.316Z,52.57
2023-04-27T08:48:47.294Z,52.27
2023-04-27T08:51:15.567Z,52.12
2023-04-27T08:53:43.334Z,51.83
2023-04-27T08:56:11.102Z,52.07
2023-04-27T08:58:39.997Z,52.00
2023-04-27T09:01:08.390Z,51.80
2023-04-27T09:03:36.967Z,51.63
2023-04-27T09:06:05.978Z,51.11
2023-04-27T09:08:34.093Z,50.56
2023-04-27T09:11:02.592Z,50.71
2023-04-27T09:13:30.480Z,50.57
2023-04-27T09:15:58.493Z,50.74
2023-04-27T09:18:26.905Z,49.82
2023-04-27T09:20:54.681Z,49.74
2023-04-27T09:23:23.020Z,49.38
2023-04-27T09:25:50.854Z,49.46
2023-04-27T09:28:18.658Z,49.12
2023-04-27T09:30:46.479Z,48.63
2023-04-27T09:33:16.045Z,47.34
2023-04-27T09:35:44.368Z,47.36
2023-04-27T09:38:14.483Z,47.04
2023-04-27T09:40:43.308Z,46.32
2023-04-27T09:43:11.148Z,45.85
2023-04-27T09:45:38.923Z,45.44
2023-04-27T09:48:07.126Z,45.05
2023-04-27T09:50:36.735Z,44.77
2023-04-27T09:53:05.903Z,44.52
2023-04-27T09:55:34.022Z,43.67
2023-04-27T09:58:02.063Z,43.66
2023-04-27T10:00:30.382Z,42.96
2023-04-27T10:02:58.647Z,42.67
2023-04-27T10:05:27.090Z,42.23
2023-04-27T10:07:54.955Z,41.75
2023-04-27T10:10:22.890Z,41.45
2023-04-27T10:12:51.708Z,40.94
2023-04-27T10:15:19.883Z,41.12
2023-04-27T10:17:49.379Z,40.32
2023-04-27T10:20:18.017Z,40.38
2023-04-27T10:22:46.179Z,40.26
2023-04-27T10:25:14.735Z,39.89
2023-04-27T10:27:42.996Z,39.31
2023-04-27T10:30:11.287Z,39.19
2023-04-27T10:32:39.183Z,38.70
2023-04-27T10:35:07.898Z,38.80
2023-04-27T10:37:35.769Z,38.31
2023-04-27T10:40:06.818Z,38.07
2023-04-27T10:42:34.762Z,38.31
2023-04-27T10:45:02.729Z,38.02
2023-04-27T10:47:30.701Z,37.72
2023-04-27T10:49:59.460Z,37.40
2023-04-27T10:52:27.218Z,37.00
2023-04-27T10:54:55.110Z,36.99
2023-04-27T10:57:23.189Z,37.12
2023-04-27T10:59:51.177Z,36.74
2023-04-27T11:02:19.969Z,36.17
2023-04-27T11:04:48.096Z,36.08
2023-04-27T11:07:16.912Z,36.34
2023-04-27T11:09:44.952Z,36.73
2023-04-27T11:12:12.965Z,36.41
2023-04-27T11:14:41.611Z,36.27
2023-04-27T11:17:09.597Z,35.71
2023-04-27T11:19:37.545Z,35.77
2023-04-27T11:22:05.505Z,35.78
2023-04-27T11:24:33.757Z,35.80
2023-04-27T11:27:02.746Z,35.78
2023-04-27T11:29:31.848Z,35.16
2023-04-27T11:32:01.855Z,33.93
2023-04-27T11:34:34.606Z,34.67
2023-04-27T11:37:17.364Z,34.62
2023-04-27T11:39:46.162Z,35.26
2023-04-27T11:42:14.737Z,35.10
2023-04-27T11:44:42.933Z,34.66
2023-04-27T11:47:11.927Z,34.31
2023-04-27T11:49:39.823Z,33.87
2023-04-27T11:52:07.859Z,34.02
2023-04-27T11:54:36.063Z,33.56
2023-04-27T11:57:04.030Z,33.49
2023-04-27T11:59:32.192Z,34.20
2023-04-27T12:02:00.459Z,34.29
2023-04-27T12:04:28.679Z,34.26
2023-04-27T12:06:58.334Z,33.73
2023-04-27T12:09:26.194Z,34.28
2023-04-27T12:11:55.436Z,33.60
2023-04-27T12:14:23.438Z,33.16
2023-04-27T12:16:51.416Z,32.88
2023-04-27T12:19:19.546Z,32.55
2023-04-27T12:21:47.341Z,32.27
2023-04-27T12:24:15.747Z,31.31
2023-04-27T12:26:43.865Z,31.65
2023-04-27T12:29:11.983Z,32.24
2023-04-27T12:31:40.072Z,31.88
2023-04-27T12:34:08.154Z,31.57
2023-04-27T12:36:36.571Z,31.51
2023-04-27T12:39:05.151Z,31.46
2023-04-27T12:41:32.939Z,31.72
2023-04-27T12:44:01.381Z,31.67
2023-04-27T12:46:29.356Z,32.50
2023-04-27T12:48:58.276Z,33.19
2023-04-27T12:51:28.530Z,33.38
2023-04-27T12:53:58.232Z,34.09
2023-04-27T12:56:29.105Z,33.85
2023-04-27T12:58:56.911Z,34.02
2023-04-27T13:01:27.163Z,34.12
2023-04-27T13:03:55.383Z,34.14
2023-04-27T13:06:24.004Z,34.24
2023-04-27T13:08:52.336Z,34.81
2023-04-27T13:11:20.222Z,35.25
2023-04-27T13:13:48.859Z,36.39
2023-04-27T13:16:16.909Z,37.09
2023-04-27T13:18:48.693Z,37.26
2023-04-27T13:21:17.247Z,36.77
2023-04-27T13:23:45.033Z,36.93
2023-04-27T13:26:13.641Z,36.44
2023-04-27T13:28:41.422Z,36.26
2023-04-27T13:31:09.463Z,36.00
2023-04-27T13:33:39.129Z,35.14
2023-04-27T13:36:07.192Z,35.21
2023-04-27T13:38:35.696Z,34.53
2023-04-27T13:41:03.861Z,34.54
2023-04-27T13:43:31.765Z,34.01
2023-04-27T13:46:01.185Z,34.16
2023-04-27T13:48:29.412Z,33.46
2023-04-27T13:50:57.313Z,33.61
2023-04-27T13:53:26.782Z,34.00
2023-04-27T13:55:54.917Z,33.53
2023-04-27T13:58:24.457Z,33.95
2023-04-27T14:00:53.964Z,34.93
2023-04-27T14:03:23.365Z,34.62
2023-04-27T14:05:51.737Z,34.98
2023-04-27T14:08:19.418Z,34.37
2023-04-27T14:10:47.904Z,35.41
2023-04-27T14:13:15.854Z,35.42
2023-04-27T14:15:44.106Z,36.10
2023-04-27T14:18:12.163Z,36.22
2023-04-27T14:20:40.503Z,36.87
2023-04-27T14:23:08.742Z,36.16
2023-04-27T14:25:36.580Z,36.27
2023-04-27T14:28:04.736Z,36.53
2023-04-27T14:30:32.471Z,36.00
2023-04-27T14:33:00.443Z,36.07
2023-04-27T14:35:28.462Z,35.31
2023-04-27T14:38:02.465Z,35.40
2023-04-27T14:40:31.156Z,34.64
2023-04-27T14:42:59.008Z,34.28
2023-04-27T14:45:33.528Z,34.18
2023-04-27T14:48:07.954Z,33.97
2023-04-27T14:50:36.839Z,34.36
2023-04-27T14:53:04.730Z,34.01
2023-04-27T14:55:32.628Z,34.14
2023-04-27T14:58:00.658Z,34.00
2023-04-27T15:00:28.485Z,33.89
2023-04-27T15:02:56.912Z,34.17
2023-04-27T15:05:24.836Z,34.06
2023-04-27T15:07:52.673Z,34.05
2023-04-27T15:10:20.990Z,33.96
2023-04-27T15:12:49.047Z,33.68
2023-04-27T15:15:17.405Z,34.23
2023-04-27T15:17:45.422Z,34.58
2023-04-27T15:20:14.283Z,34.70
2023-04-27T15:22:42.213Z,34.93
2023-04-27T15:25:10.274Z,35.27
2023-04-27T15:27:38.923Z,35.35
2023-04-27T15:30:06.823Z,35.70
2023-04-27T15:32:34.588Z,36.27
2023-04-27T15:35:02.603Z,36.69
2023-04-27T15:37:30.792Z,36.33
2023-04-27T15:39:58.899Z,36.91
2023-04-27T15:42:26.689Z,37.55
2023-04-27T15:44:54.553Z,37.90
2023-04-27T15:47:22.756Z,38.21
2023-04-27T15:49:57.320Z,38.18
2023-04-27T15:52:27.267Z,38.66
2023-04-27T15:54:55.232Z,38.44
2023-04-27T15:57:22.967Z,38.81
2023-04-27T15:59:51.038Z,39.22
2023-04-27T16:02:19.620Z,38.94
2023-04-27T16:04:48.165Z,39.13
2023-04-27T16:07:16.023Z,38.45
2023-04-27T16:09:44.302Z,38.64
2023-04-27T16:12:12.461Z,38.60
2023-04-27T16:14:40.641Z,38.92
2023-04-27T16:17:09.067Z,38.92
2023-04-27T16:19:36.819Z,38.72
2023-04-27T16:22:04.778Z,39.08
2023-04-27T16:24:33.935Z,39.54
2023-04-27T16:27:01.852Z,39.66
2023-04-27T16:29:30.209Z,39.61
2023-04-27T16:31:58.161Z,40.05
2023-04-27T16:34:26.011Z,40.72
2023-04-27T16:36:53.818Z,40.70
2023-04-27T16:39:21.774Z,40.66
2023-04-27T16:41:50.102Z,40.78
2023-04-27T16:44:17.977Z,40.56
2023-04-27T16:46:47.756Z,40.84
2023-04-27T16:49:16.428Z,40.65
2023-04-27T16:51:44.545Z,41.23
2023-04-27T16:54:13.528Z,41.08
2023-04-27T16:56:41.247Z,41.82
2023-04-27T16:59:12.565Z,41.31
2023-04-27T17:01:41.042Z,41.65
2023-04-27T17:04:09.122Z,42.03
2023-04-27T17:06:37.618Z,42.00
2023-04-27T17:09:05.874Z,41.80
2023-04-27T17:11:33.712Z,42.39
2023-04-27T17:14:01.828Z,42.80
2023-04-27T17:16:29.803Z,42.46
2023-04-27T17:18:57.933Z,42.55
2023-04-27T17:21:25.766Z,42.35
2023-04-27T17:23:53.723Z,42.59
2023-04-27T17:26:22.017Z,42.33
2023-04-27T17:28:49.871Z,43.14
2023-04-27T17:31:18.776Z,42.88
2023-04-27T17:33:46.782Z,42.93
2023-04-27T17:36:15.223Z,42.54
2023-04-27T17:38:43.833Z,42.97
2023-04-27T17:41:11.622Z,43.42
2023-04-27T17:43:41.838Z,43.53
2023-04-27T17:46:10.098Z,43.65
2023-04-27T17:48:38.270Z,43.69
2023-04-27T17:51:06.366Z,44.34
2023-04-27T17:53:34.603Z,44.31
2023-04-27T17:56:03.018Z,43.62
2023-04-27T17:58:32.406Z,44.26
2023-04-27T18:01:00.389Z,44.27
2023-04-27T18:03:28.642Z,44.51
2023-04-27T18:05:56.745Z,44.40
2023-04-27T18:08:25.379Z,44.92
2023-04-27T18:10:53.146Z,45.01
2023-04-27T18:13:21.053Z,44.89
2023-04-27T18:15:49.927Z,45.08
2023-04-27T18:18:23.843Z,44.91
2023-04-27T18:20:53.950Z,45.16
2023-04-27T18:23:21.816Z,45.24
2023-04-27T18:25:49.845Z,45.41
2023-04-27T18:28:17.825Z,44.90
2023-04-27T18:30:45.669Z,45.50
2023-04-27T18:33:13.748Z,45.15
2023-04-27T18:35:41.633Z,45.29
2023-04-27T18:38:09.604Z,45.61
2023-04-27T18:40:37.631Z,45.32
2023-04-27T18:43:05.513Z,45.56
2023-04-27T18:45:34.337Z,45.64
2023-04-27T18:48:02.368Z,45.69
2023-04-27T18:50:30.584Z,45.44
2023-04-27T18:52:58.812Z,45.66
2023-04-27T18:55:26.940Z,45.84
2023-04-27T18:57:55.281Z,46.11
2023-04-27T19:00:23.158Z,45.94
2023-04-27T19:02:52.439Z,45.78
2023-04-27T19:05:20.541Z,46.14
2023-04-27T19:07:48.576Z,45.96
2023-04-27T19:10:16.434Z,46.35
2023-04-27T19:12:44.359Z,46.01
2023-04-27T19:15:12.286Z,45.91
2023-04-27T19:17:40.420Z,46.21
2023-04-27T19:20:08.387Z,45.88
2023-04-27T19:22:37.705Z,46.72
2023-04-27T19:25:05.582Z,46.32
2023-04-27T19:27:33.623Z,46.36
2023-04-27T19:30:02.812Z,46.50
2023-04-27T19:32:31.115Z,46.65
2023-04-27T19:34:59.040Z,46.43
2023-04-27T19:37:27.040Z,46.56
2023-04-27T19:39:55.806Z,46.82
2023-04-27T19:42:25.058Z,46.57
2023-04-27T19:44:52.969Z,46.37
2023-04-27T19:47:20.798Z,46.24
2023-04-27T19:49:48.705Z,46.49
2023-04-27T19:52:16.780Z,46.66
2023-04-27T19:54:44.592Z,46.71
2023-04-27T19:57:12.472Z,46.78
2023-04-27T19:59:40.559Z,47.03
2023-04-27T20:02:09.309Z,46.58
2023-04-27T20:04:38.022Z,46.59
2023-04-27T20:07:06.126Z,46.49
2023-04-27T20:09:34.102Z,47.14
2023-04-27T20:12:02.836Z,46.62
2023-04-27T20:14:33.845Z,46.88
2023-04-27T20:17:02.647Z,46.97
2023-04-27T20:19:30.332Z,46.80
2023-04-27T20:21:58.117Z,46.93
2023-04-27T20:24:27.711Z,47.17
2023-04-27T20:26:55.430Z,46.91
2023-04-27T20:29:23.462Z,47.30
2023-04-27T20:31:51.775Z,47.01
2023-04-27T20:34:19.656Z,46.84
2023-04-27T20:36:48.105Z,47.55
2023-04-27T20:39:16.190Z,47.24
2023-04-27T20:41:44.430Z,47.50
2023-04-27T20:44:12.675Z,47.48
2023-04-27T20:46:40.959Z,47.59
2023-04-27T20:49:08.748Z,47.62
2023-04-27T20:51:36.764Z,47.28
2023-04-27T20:54:05.246Z,47.63
2023-04-27T20:56:33.198Z,47.57
2023-04-27T20:59:00.980Z,48.05
2023-04-27T21:01:29.151Z,47.17
2023-04-27T21:03:56.937Z,47.80
2023-04-27T21:06:24.860Z,47.64
2023-04-27T21:08:53.033Z,47.67
2023-04-27T21:11:21.361Z,47.61
2023-04-27T21:13:49.526Z,47.87
2023-04-27T21:16:17.261Z,47.55
2023-04-27T21:18:45.284Z,47.75
2023-04-27T21:21:13.109Z,47.59
2023-04-27T21:23:40.964Z,47.84
2023-04-27T21:26:09.197Z,47.59
2023-04-27T21:28:37.294Z,47.81
2023-04-27T21:31:06.712Z,48.01
2023-04-27T21:33:34.502Z,48.30
2023-04-27T21:36:03.950Z,48.25
2023-04-27T21:38:32.047Z,48.38
2023-04-27T21:40:59.729Z,48.67
2023-04-27T21:43:27.614Z,48.36
2023-04-27T21:45:55.325Z,48.76
2023-04-27T21:48:23.126Z,48.88
2023-04-27T21:50:51.117Z,48.71
2023-04-27T21:53:19.220Z,48.92
2023-04-27T21:55:46.880Z,48.57
2023-04-27T21:58:14.595Z,48.65
2023-04-27T22:00:42.301Z,48.74
2023-04-27T22:03:10.518Z,48.85
2023-04-27T22:05:38.358Z,48.79
2023-04-27T22:08:06.068Z,48.61
2023-04-27T22:10:33.804Z,48.51
2023-04-27T22:13:08.139Z,48.60
2023-04-27T22:15:45.633Z,48.99
2023-04-27T22:18:14.582Z,49.03
2023-04-27T22:20:42.614Z,48.60
2023-04-27T22:23:11.000Z,48.66
2023-04-27T22:25:38.670Z,48.97
2023-04-27T22:28:06.628Z,48.88
2023-04-27T22:30:34.729Z,49.41
2023-04-27T22:33:02.461Z,48.58
2023-04-27T22:35:30.361Z,49.07
2023-04-27T22:37:58.050Z,48.95
2023-04-27T22:40:26.036Z,48.85
2023-04-27T22:42:53.859Z,48.99
2023-04-27T22:45:21.501Z,49.03
2023-04-27T22:47:49.579Z,49.33
2023-04-27T22:50:17.622Z,49.25
2023-04-27T22:52:45.669Z,49.32
2023-04-27T22:55:13.399Z,49.18
2023-04-27T22:57:41.112Z,49.54
2023-04-27T23:00:09.139Z,49.38
2023-04-27T23:02:36.882Z,49.11
2023-04-27T23:05:05.429Z,49.30
2023-04-27T23:07:33.353Z,49.11
2023-04-27T23:10:03.261Z,49.60
2023-04-27T23:12:32.193Z,49.36
2023-04-27T23:14:59.817Z,49.58
2023-04-27T23:17:31.194Z,49.51
2023-04-27T23:19:58.970Z,49.52
2023-04-27T23:22:26.645Z,49.35
2023-04-27T23:24:54.254Z,49.50
2023-04-27T23:27:22.655Z,50.06
2023-04-27T23:29:50.633Z,49.52
2023-04-27T23:32:18.534Z,49.67
2023-04-27T23:34:46.126Z,49.61
2023-04-27T23:37:13.786Z,50.06
2023-04-27T23:39:41.417Z,50.19
2023-04-27T23:42:09.631Z,49.52
2023-04-27T23:44:37.486Z,50.20
2023-04-27T23:47:05.030Z,50.15
2023-04-27T23:49:32.579Z,49.70
2023-04-27T23:52:00.214Z,49.90
2023-04-27T23:54:27.825Z,50.16
2023-04-27T23:56:55.602Z,50.32
2023-04-27T23:59:23.235Z,50.29
